sensor_id;sensor_type;location;lat;lon;timestamp;P1;durP1;ratioP1;P2;durP2;ratioP2
62574;SDS011;53112;45.602;11.904;2023-01-30T00:00:51;47.78;;;25.10;;
62574;SDS011;53112;45.602;11.904;2023-01-30T00:03:19;56.75;;;29.95;;
62574;SDS011;53112;45.602;11.904;2023-01-30T00:05:45;48.15;;;26.00;;
62574;SDS011;53112;45.602;11.904;2023-01-30T00:08:11;40.88;;;21.77;;
62574;SDS011;53112;45.602;11.904;2023-01-30T00:10:38;53.05;;;26.92;;
62574;SDS011;53112;45.602;11.904;2023-01-30T00:13:04;52.80;;;27.98;;
62574;SDS011;53112;45.602;11.904;2023-01-30T00:15:30;54.90;;;27.98;;
62574;SDS011;53112;45.602;11.904;2023-01-30T00:17:56;53.13;;;27.88;;
62574;SDS011;53112;45.602;11.904;2023-01-30T00:20:22;51.60;;;25.63;;
62574;SDS011;53112;45.602;11.904;2023-01-30T00:22:48;59.90;;;29.38;;
62574;SDS011;53112;45.602;11.904;2023-01-30T00:25:14;48.97;;;25.80;;
62574;SDS011;53112;45.602;11.904;2023-01-30T00:27:40;54.25;;;27.42;;
62574;SDS011;53112;45.602;11.904;2023-01-30T00:30:06;53.10;;;25.15;;
62574;SDS011;53112;45.602;11.904;2023-01-30T00:32:33;43.88;;;23.27;;
62574;SDS011;53112;45.602;11.904;2023-01-30T00:34:59;60.72;;;29.08;;
62574;SDS011;53112;45.602;11.904;2023-01-30T00:37:24;58.30;;;29.35;;
62574;SDS011;53112;45.602;11.904;2023-01-30T00:39:50;50.53;;;25.58;;
62574;SDS011;53112;45.602;11.904;2023-01-30T00:42:16;49.92;;;25.92;;
62574;SDS011;53112;45.602;11.904;2023-01-30T00:45:01;48.05;;;23.88;;
62574;SDS011;53112;45.602;11.904;2023-01-30T00:47:47;48.53;;;25.40;;
62574;SDS011;53112;45.602;11.904;2023-01-30T00:50:13;44.72;;;22.80;;
62574;SDS011;53112;45.602;11.904;2023-01-30T00:52:39;50.35;;;27.48;;
62574;SDS011;53112;45.602;11.904;2023-01-30T00:55:05;55.60;;;27.88;;
62574;SDS011;53112;45.602;11.904;2023-01-30T00:57:32;52.75;;;25.80;;
62574;SDS011;53112;45.602;11.904;2023-01-30T00:59:58;55.80;;;27.73;;
62574;SDS011;53112;45.602;11.904;2023-01-30T01:02:24;49.70;;;25.83;;
62574;SDS011;53112;45.602;11.904;2023-01-30T01:04:49;51.83;;;26.02;;
62574;SDS011;53112;45.602;11.904;2023-01-30T01:07:15;46.63;;;25.05;;
62574;SDS011;53112;45.602;11.904;2023-01-30T01:09:42;50.75;;;26.08;;
62574;SDS011;53112;45.602;11.904;2023-01-30T01:12:08;58.22;;;30.30;;
62574;SDS011;53112;45.602;11.904;2023-01-30T01:14:34;52.55;;;28.55;;
62574;SDS011;53112;45.602;11.904;2023-01-30T01:17:00;56.30;;;29.17;;
62574;SDS011;53112;45.602;11.904;2023-01-30T01:19:26;52.05;;;26.48;;
62574;SDS011;53112;45.602;11.904;2023-01-30T01:21:52;57.13;;;28.80;;
62574;SDS011;53112;45.602;11.904;2023-01-30T01:24:18;49.90;;;27.05;;
62574;SDS011;53112;45.602;11.904;2023-01-30T01:26:44;53.40;;;26.00;;
62574;SDS011;53112;45.602;11.904;2023-01-30T01:29:13;49.20;;;25.38;;
62574;SDS011;53112;45.602;11.904;2023-01-30T01:31:41;50.42;;;26.42;;
62574;SDS011;53112;45.602;11.904;2023-01-30T01:34:08;52.22;;;27.73;;
62574;SDS011;53112;45.602;11.904;2023-01-30T01:36:34;48.35;;;25.38;;
62574;SDS011;53112;45.602;11.904;2023-01-30T01:39:00;52.05;;;28.20;;
62574;SDS011;53112;45.602;11.904;2023-01-30T01:41:27;56.13;;;28.75;;
62574;SDS011;53112;45.602;11.904;2023-01-30T01:44:06;46.60;;;25.52;;
62574;SDS011;53112;45.602;11.904;2023-01-30T01:46:37;47.95;;;25.10;;
62574;SDS011;53112;45.602;11.904;2023-01-30T01:49:19;49.00;;;25.83;;
62574;SDS011;53112;45.602;11.904;2023-01-30T01:54:23;59.45;;;27.92;;
62574;SDS011;53112;45.602;11.904;2023-01-30T01:56:50;57.22;;;27.50;;
62574;SDS011;53112;45.602;11.904;2023-01-30T01:59:22;54.97;;;26.15;;
62574;SDS011;53112;45.602;11.904;2023-01-30T02:01:53;51.20;;;26.98;;
62574;SDS011;53112;45.602;11.904;2023-01-30T02:04:22;57.35;;;30.00;;
62574;SDS011;53112;45.602;11.904;2023-01-30T02:07:08;54.03;;;26.60;;
62574;SDS011;53112;45.602;11.904;2023-01-30T02:09:34;48.85;;;26.02;;
62574;SDS011;53112;45.602;11.904;2023-01-30T02:12:01;45.08;;;23.67;;
62574;SDS011;53112;45.602;11.904;2023-01-30T02:14:29;50.63;;;26.33;;
62574;SDS011;53112;45.602;11.904;2023-01-30T02:16:57;45.55;;;24.08;;
62574;SDS011;53112;45.602;11.904;2023-01-30T02:22:21;49.55;;;28.30;;
62574;SDS011;53112;45.602;11.904;2023-01-30T02:30:36;44.22;;;22.60;;
62574;SDS011;53112;45.602;11.904;2023-01-30T02:36:28;47.13;;;24.52;;
62574;SDS011;53112;45.602;11.904;2023-01-30T02:41:51;62.85;;;29.63;;
62574;SDS011;53112;45.602;11.904;2023-01-30T02:45:12;37.17;;;19.98;;
62574;SDS011;53112;45.602;11.904;2023-01-30T02:47:29;54.08;;;29.65;;
62574;SDS011;53112;45.602;11.904;2023-01-30T02:50:16;60.55;;;30.50;;
62574;SDS011;53112;45.602;11.904;2023-01-30T02:52:47;60.20;;;30.70;;
62574;SDS011;53112;45.602;11.904;2023-01-30T02:55:20;64.50;;;30.48;;
62574;SDS011;53112;45.602;11.904;2023-01-30T02:57:48;64.88;;;32.05;;
62574;SDS011;53112;45.602;11.904;2023-01-30T03:00:15;68.95;;;33.22;;
62574;SDS011;53112;45.602;11.904;2023-01-30T03:03:31;62.53;;;30.55;;
62574;SDS011;53112;45.602;11.904;2023-01-30T03:10:53;56.17;;;26.90;;
62574;SDS011;53112;45.602;11.904;2023-01-30T03:13:31;56.47;;;26.85;;
62574;SDS011;53112;45.602;11.904;2023-01-30T03:18:39;56.65;;;30.42;;
62574;SDS011;53112;45.602;11.904;2023-01-30T03:21:08;67.35;;;32.45;;
62574;SDS011;53112;45.602;11.904;2023-01-30T03:23:35;62.05;;;31.83;;
62574;SDS011;53112;45.602;11.904;2023-01-30T03:26:05;63.47;;;32.85;;
62574;SDS011;53112;45.602;11.904;2023-01-30T03:28:36;69.85;;;31.73;;
62574;SDS011;53112;45.602;11.904;2023-01-30T03:31:02;64.20;;;31.10;;
62574;SDS011;53112;45.602;11.904;2023-01-30T03:33:28;56.63;;;28.15;;
62574;SDS011;53112;45.602;11.904;2023-01-30T03:35:53;61.53;;;31.00;;
62574;SDS011;53112;45.602;11.904;2023-01-30T03:38:19;69.55;;;33.25;;
62574;SDS011;53112;45.602;11.904;2023-01-30T03:40:46;54.22;;;29.58;;
62574;SDS011;53112;45.602;11.904;2023-01-30T03:43:12;55.88;;;29.35;;
62574;SDS011;53112;45.602;11.904;2023-01-30T03:45:37;56.65;;;29.58;;
62574;SDS011;53112;45.602;11.904;2023-01-30T03:48:03;56.85;;;28.58;;
62574;SDS011;53112;45.602;11.904;2023-01-30T03:50:29;62.20;;;32.30;;
62574;SDS011;53112;45.602;11.904;2023-01-30T03:52:55;56.13;;;28.20;;
62574;SDS011;53112;45.602;11.904;2023-01-30T03:55:21;61.63;;;29.98;;
62574;SDS011;53112;45.602;11.904;2023-01-30T03:57:47;65.35;;;32.78;;
62574;SDS011;53112;45.602;11.904;2023-01-30T04:00:13;64.60;;;31.75;;
62574;SDS011;53112;45.602;11.904;2023-01-30T04:02:39;63.58;;;29.75;;
62574;SDS011;53112;45.602;11.904;2023-01-30T04:05:05;63.05;;;29.92;;
62574;SDS011;53112;45.602;11.904;2023-01-30T04:07:31;56.05;;;27.05;;
62574;SDS011;53112;45.602;11.904;2023-01-30T04:09:57;61.33;;;29.63;;
62574;SDS011;53112;45.602;11.904;2023-01-30T04:12:23;46.22;;;23.20;;
62574;SDS011;53112;45.602;11.904;2023-01-30T04:14:49;50.30;;;24.63;;
62574;SDS011;53112;45.602;11.904;2023-01-30T04:17:15;59.78;;;28.13;;
62574;SDS011;53112;45.602;11.904;2023-01-30T04:19:41;52.67;;;25.95;;
62574;SDS011;53112;45.602;11.904;2023-01-30T04:22:07;54.85;;;28.00;;
62574;SDS011;53112;45.602;11.904;2023-01-30T04:24:33;53.95;;;28.52;;
62574;SDS011;53112;45.602;11.904;2023-01-30T04:26:59;56.58;;;26.73;;
62574;SDS011;53112;45.602;11.904;2023-01-30T04:29:24;57.38;;;28.25;;
62574;SDS011;53112;45.602;11.904;2023-01-30T04:31:50;55.00;;;26.35;;
62574;SDS011;53112;45.602;11.904;2023-01-30T04:34:16;54.00;;;28.90;;
62574;SDS011;53112;45.602;11.904;2023-01-30T04:36:42;50.35;;;26.50;;
62574;SDS011;53112;45.602;11.904;2023-01-30T04:39:08;62.17;;;32.90;;
62574;SDS011;53112;45.602;11.904;2023-01-30T04:41:34;54.47;;;28.17;;
62574;SDS011;53112;45.602;11.904;2023-01-30T04:44:00;61.05;;;29.45;;
62574;SDS011;53112;45.602;11.904;2023-01-30T04:46:26;52.53;;;26.98;;
62574;SDS011;53112;45.602;11.904;2023-01-30T04:48:51;54.03;;;29.05;;
62574;SDS011;53112;45.602;11.904;2023-01-30T04:51:17;52.10;;;28.17;;
62574;SDS011;53112;45.602;11.904;2023-01-30T04:53:43;54.28;;;27.52;;
62574;SDS011;53112;45.602;11.904;2023-01-30T04:56:09;58.45;;;28.60;;
62574;SDS011;53112;45.602;11.904;2023-01-30T04:58:35;62.67;;;33.13;;
62574;SDS011;53112;45.602;11.904;2023-01-30T05:03:59;60.40;;;30.00;;
62574;SDS011;53112;45.602;11.904;2023-01-30T05:06:26;69.82;;;30.42;;
62574;SDS011;53112;45.602;11.904;2023-01-30T05:08:53;60.08;;;27.55;;
62574;SDS011;53112;45.602;11.904;2023-01-30T05:11:20;56.20;;;27.80;;
62574;SDS011;53112;45.602;11.904;2023-01-30T05:13:47;62.47;;;31.20;;
62574;SDS011;53112;45.602;11.904;2023-01-30T05:16:13;55.22;;;28.13;;
62574;SDS011;53112;45.602;11.904;2023-01-30T05:18:40;59.22;;;29.20;;
62574;SDS011;53112;45.602;11.904;2023-01-30T05:21:09;52.08;;;27.25;;
62574;SDS011;53112;45.602;11.904;2023-01-30T05:23:45;59.83;;;31.45;;
62574;SDS011;53112;45.602;11.904;2023-01-30T05:26:12;56.65;;;29.55;;
62574;SDS011;53112;45.602;11.904;2023-01-30T05:28:39;59.97;;;30.90;;
62574;SDS011;53112;45.602;11.904;2023-01-30T05:31:06;65.15;;;34.78;;
62574;SDS011;53112;45.602;11.904;2023-01-30T05:33:40;64.78;;;32.33;;
62574;SDS011;53112;45.602;11.904;2023-01-30T05:36:06;65.10;;;35.47;;
62574;SDS011;53112;45.602;11.904;2023-01-30T05:38:32;67.60;;;34.05;;
62574;SDS011;53112;45.602;11.904;2023-01-30T05:40:59;65.30;;;35.40;;
62574;SDS011;53112;45.602;11.904;2023-01-30T05:43:26;71.38;;;35.33;;
62574;SDS011;53112;45.602;11.904;2023-01-30T05:45:52;71.32;;;34.47;;
62574;SDS011;53112;45.602;11.904;2023-01-30T05:48:19;64.75;;;32.40;;
62574;SDS011;53112;45.602;11.904;2023-01-30T05:50:46;58.60;;;31.50;;
62574;SDS011;53112;45.602;11.904;2023-01-30T05:53:14;55.45;;;30.35;;
62574;SDS011;53112;45.602;11.904;2023-01-30T05:55:40;59.03;;;28.98;;
62574;SDS011;53112;45.602;11.904;2023-01-30T05:58:08;59.70;;;29.48;;
62574;SDS011;53112;45.602;11.904;2023-01-30T06:00:34;60.92;;;29.60;;
62574;SDS011;53112;45.602;11.904;2023-01-30T06:03:00;60.17;;;31.73;;
62574;SDS011;53112;45.602;11.904;2023-01-30T06:05:26;57.25;;;28.48;;
62574;SDS011;53112;45.602;11.904;2023-01-30T06:07:52;53.70;;;26.30;;
62574;SDS011;53112;45.602;11.904;2023-01-30T06:10:18;54.38;;;26.52;;
62574;SDS011;53112;45.602;11.904;2023-01-30T06:12:44;67.63;;;31.45;;
62574;SDS011;53112;45.602;11.904;2023-01-30T06:15:10;53.65;;;26.85;;
62574;SDS011;53112;45.602;11.904;2023-01-30T06:17:40;57.40;;;28.77;;
62574;SDS011;53112;45.602;11.904;2023-01-30T06:20:07;63.83;;;29.30;;
62574;SDS011;53112;45.602;11.904;2023-01-30T06:22:34;53.00;;;28.45;;
62574;SDS011;53112;45.602;11.904;2023-01-30T06:25:00;44.13;;;25.17;;
62574;SDS011;53112;45.602;11.904;2023-01-30T06:27:26;56.45;;;27.92;;
62574;SDS011;53112;45.602;11.904;2023-01-30T06:29:51;60.25;;;30.70;;
62574;SDS011;53112;45.602;11.904;2023-01-30T06:32:17;63.90;;;32.38;;
62574;SDS011;53112;45.602;11.904;2023-01-30T06:34:43;54.83;;;28.27;;
62574;SDS011;53112;45.602;11.904;2023-01-30T06:37:09;53.50;;;25.35;;
62574;SDS011;53112;45.602;11.904;2023-01-30T06:39:35;59.28;;;30.30;;
62574;SDS011;53112;45.602;11.904;2023-01-30T06:42:01;59.58;;;29.75;;
62574;SDS011;53112;45.602;11.904;2023-01-30T06:44:27;52.65;;;28.10;;
62574;SDS011;53112;45.602;11.904;2023-01-30T06:46:52;65.05;;;33.35;;
62574;SDS011;53112;45.602;11.904;2023-01-30T06:49:18;60.47;;;30.30;;
62574;SDS011;53112;45.602;11.904;2023-01-30T06:51:44;68.38;;;31.85;;
62574;SDS011;53112;45.602;11.904;2023-01-30T06:54:10;67.55;;;31.02;;
62574;SDS011;53112;45.602;11.904;2023-01-30T06:56:36;63.20;;;30.27;;
62574;SDS011;53112;45.602;11.904;2023-01-30T06:59:02;60.42;;;29.35;;
62574;SDS011;53112;45.602;11.904;2023-01-30T07:01:28;64.35;;;31.45;;
62574;SDS011;53112;45.602;11.904;2023-01-30T07:03:54;100.07;;;46.10;;
62574;SDS011;53112;45.602;11.904;2023-01-30T07:06:20;85.03;;;42.42;;
62574;SDS011;53112;45.602;11.904;2023-01-30T07:08:46;75.03;;;37.63;;
62574;SDS011;53112;45.602;11.904;2023-01-30T07:11:11;80.72;;;38.92;;
62574;SDS011;53112;45.602;11.904;2023-01-30T07:13:37;80.47;;;39.80;;
62574;SDS011;53112;45.602;11.904;2023-01-30T07:16:03;81.60;;;37.67;;
62574;SDS011;53112;45.602;11.904;2023-01-30T07:18:29;66.75;;;34.03;;
62574;SDS011;53112;45.602;11.904;2023-01-30T07:20:55;67.13;;;33.35;;
62574;SDS011;53112;45.602;11.904;2023-01-30T07:23:21;61.92;;;32.15;;
62574;SDS011;53112;45.602;11.904;2023-01-30T07:25:47;74.47;;;37.05;;
62574;SDS011;53112;45.602;11.904;2023-01-30T07:28:13;77.90;;;38.60;;
62574;SDS011;53112;45.602;11.904;2023-01-30T07:30:39;68.65;;;33.90;;
62574;SDS011;53112;45.602;11.904;2023-01-30T07:33:05;65.78;;;31.33;;
62574;SDS011;53112;45.602;11.904;2023-01-30T07:35:32;74.72;;;37.00;;
62574;SDS011;53112;45.602;11.904;2023-01-30T07:37:59;81.35;;;39.63;;
62574;SDS011;53112;45.602;11.904;2023-01-30T07:40:25;84.25;;;41.40;;
62574;SDS011;53112;45.602;11.904;2023-01-30T07:42:57;85.97;;;42.15;;
62574;SDS011;53112;45.602;11.904;2023-01-30T07:46:04;78.18;;;41.60;;
62574;SDS011;53112;45.602;11.904;2023-01-30T07:48:24;80.35;;;37.75;;
62574;SDS011;53112;45.602;11.904;2023-01-30T07:50:53;77.88;;;38.95;;
62574;SDS011;53112;45.602;11.904;2023-01-30T07:53:23;79.38;;;38.92;;
62574;SDS011;53112;45.602;11.904;2023-01-30T07:55:49;72.53;;;37.47;;
62574;SDS011;53112;45.602;11.904;2023-01-30T07:58:15;70.70;;;35.03;;
62574;SDS011;53112;45.602;11.904;2023-01-30T08:00:42;75.57;;;39.38;;
62574;SDS011;53112;45.602;11.904;2023-01-30T08:03:12;69.25;;;33.47;;
62574;SDS011;53112;45.602;11.904;2023-01-30T08:05:39;65.68;;;34.90;;
62574;SDS011;53112;45.602;11.904;2023-01-30T08:08:05;66.15;;;32.58;;
62574;SDS011;53112;45.602;11.904;2023-01-30T08:10:31;67.78;;;33.65;;
62574;SDS011;53112;45.602;11.904;2023-01-30T08:12:57;61.50;;;33.03;;
62574;SDS011;53112;45.602;11.904;2023-01-30T08:15:23;68.55;;;37.45;;
62574;SDS011;53112;45.602;11.904;2023-01-30T08:17:52;68.10;;;36.72;;
62574;SDS011;53112;45.602;11.904;2023-01-30T08:20:19;67.72;;;35.03;;
62574;SDS011;53112;45.602;11.904;2023-01-30T08:22:45;64.70;;;34.47;;
62574;SDS011;53112;45.602;11.904;2023-01-30T08:25:11;60.75;;;30.83;;
62574;SDS011;53112;45.602;11.904;2023-01-30T08:27:37;58.30;;;33.50;;
62574;SDS011;53112;45.602;11.904;2023-01-30T08:30:03;60.55;;;33.28;;
62574;SDS011;53112;45.602;11.904;2023-01-30T08:32:29;65.97;;;35.35;;
62574;SDS011;53112;45.602;11.904;2023-01-30T08:34:55;57.90;;;33.25;;
62574;SDS011;53112;45.602;11.904;2023-01-30T08:37:21;60.35;;;32.47;;
62574;SDS011;53112;45.602;11.904;2023-01-30T08:39:47;63.55;;;33.15;;
62574;SDS011;53112;45.602;11.904;2023-01-30T08:42:13;56.85;;;32.83;;
62574;SDS011;53112;45.602;11.904;2023-01-30T08:44:39;58.85;;;32.10;;
62574;SDS011;53112;45.602;11.904;2023-01-30T08:47:05;60.97;;;32.05;;
62574;SDS011;53112;45.602;11.904;2023-01-30T08:49:31;64.35;;;33.20;;
62574;SDS011;53112;45.602;11.904;2023-01-30T08:51:56;57.70;;;31.73;;
62574;SDS011;53112;45.602;11.904;2023-01-30T08:54:22;62.95;;;32.28;;
62574;SDS011;53112;45.602;11.904;2023-01-30T08:56:48;57.80;;;30.23;;
62574;SDS011;53112;45.602;11.904;2023-01-30T08:59:14;56.28;;;28.58;;
62574;SDS011;53112;45.602;11.904;2023-01-30T09:01:40;52.75;;;28.27;;
62574;SDS011;53112;45.602;11.904;2023-01-30T09:04:06;52.72;;;26.90;;
62574;SDS011;53112;45.602;11.904;2023-01-30T09:06:32;54.00;;;28.60;;
62574;SDS011;53112;45.602;11.904;2023-01-30T09:08:58;56.53;;;30.88;;
62574;SDS011;53112;45.602;11.904;2023-01-30T09:11:25;52.35;;;29.13;;
62574;SDS011;53112;45.602;11.904;2023-01-30T09:13:51;59.03;;;30.80;;
62574;SDS011;53112;45.602;11.904;2023-01-30T09:16:16;51.42;;;27.65;;
62574;SDS011;53112;45.602;11.904;2023-01-30T09:18:43;46.78;;;24.73;;
62574;SDS011;53112;45.602;11.904;2023-01-30T09:21:09;46.20;;;24.00;;
62574;SDS011;53112;45.602;11.904;2023-01-30T09:23:36;45.33;;;24.00;;
62574;SDS011;53112;45.602;11.904;2023-01-30T09:26:03;37.15;;;21.13;;
62574;SDS011;53112;45.602;11.904;2023-01-30T09:28:30;44.55;;;23.70;;
62574;SDS011;53112;45.602;11.904;2023-01-30T09:30:57;44.50;;;23.40;;
62574;SDS011;53112;45.602;11.904;2023-01-30T09:33:29;45.13;;;23.20;;
62574;SDS011;53112;45.602;11.904;2023-01-30T09:35:55;42.30;;;22.60;;
62574;SDS011;53112;45.602;11.904;2023-01-30T09:38:21;46.92;;;22.88;;
62574;SDS011;53112;45.602;11.904;2023-01-30T09:40:53;42.25;;;22.40;;
62574;SDS011;53112;45.602;11.904;2023-01-30T09:51:31;36.30;;;19.92;;
62574;SDS011;53112;45.602;11.904;2023-01-30T09:54:15;42.67;;;23.77;;
62574;SDS011;53112;45.602;11.904;2023-01-30T09:56:48;42.70;;;23.98;;
62574;SDS011;53112;45.602;11.904;2023-01-30T10:02:40;35.53;;;20.23;;
62574;SDS011;53112;45.602;11.904;2023-01-30T10:05:12;42.33;;;19.75;;
62574;SDS011;53112;45.602;11.904;2023-01-30T10:10:47;38.88;;;20.38;;
62574;SDS011;53112;45.602;11.904;2023-01-30T10:16:15;39.85;;;19.83;;
62574;SDS011;53112;45.602;11.904;2023-01-30T10:26:44;35.30;;;18.90;;
62574;SDS011;53112;45.602;11.904;2023-01-30T10:29:19;31.33;;;17.95;;
62574;SDS011;53112;45.602;11.904;2023-01-30T10:32:00;32.28;;;18.02;;
62574;SDS011;53112;45.602;11.904;2023-01-30T10:34:39;34.67;;;19.55;;
62574;SDS011;53112;45.602;11.904;2023-01-30T10:37:39;32.78;;;18.80;;
62574;SDS011;53112;45.602;11.904;2023-01-30T10:43:18;33.95;;;18.20;;
62574;SDS011;53112;45.602;11.904;2023-01-30T10:51:32;34.35;;;18.52;;
62574;SDS011;53112;45.602;11.904;2023-01-30T11:05:29;32.28;;;17.58;;
62574;SDS011;53112;45.602;11.904;2023-01-30T11:08:07;31.63;;;19.05;;
62574;SDS011;53112;45.602;11.904;2023-01-30T11:11:22;32.50;;;18.75;;
62574;SDS011;53112;45.602;11.904;2023-01-30T11:16:43;34.25;;;18.38;;
62574;SDS011;53112;45.602;11.904;2023-01-30T11:19:10;34.30;;;19.30;;
62574;SDS011;53112;45.602;11.904;2023-01-30T11:21:37;31.90;;;18.20;;
62574;SDS011;53112;45.602;11.904;2023-01-30T11:24:14;34.75;;;17.88;;
62574;SDS011;53112;45.602;11.904;2023-01-30T11:26:42;31.40;;;17.55;;
62574;SDS011;53112;45.602;11.904;2023-01-30T11:29:15;30.45;;;18.38;;
62574;SDS011;53112;45.602;11.904;2023-01-30T11:31:50;30.35;;;17.13;;
62574;SDS011;53112;45.602;11.904;2023-01-30T11:34:19;32.78;;;19.33;;
62574;SDS011;53112;45.602;11.904;2023-01-30T11:36:46;32.70;;;18.98;;
62574;SDS011;53112;45.602;11.904;2023-01-30T11:41:45;29.58;;;18.42;;
62574;SDS011;53112;45.602;11.904;2023-01-30T11:44:27;28.63;;;18.17;;
62574;SDS011;53112;45.602;11.904;2023-01-30T11:46:59;31.83;;;18.58;;
62574;SDS011;53112;45.602;11.904;2023-01-30T11:49:35;29.00;;;16.95;;
62574;SDS011;53112;45.602;11.904;2023-01-30T11:52:21;29.00;;;17.77;;
62574;SDS011;53112;45.602;11.904;2023-01-30T11:54:51;27.52;;;17.42;;
62574;SDS011;53112;45.602;11.904;2023-01-30T11:57:18;28.95;;;17.23;;
62574;SDS011;53112;45.602;11.904;2023-01-30T11:59:52;29.52;;;17.70;;
62574;SDS011;53112;45.602;11.904;2023-01-30T12:04:55;26.25;;;16.38;;
62574;SDS011;53112;45.602;11.904;2023-01-30T12:07:44;29.88;;;17.83;;
62574;SDS011;53112;45.602;11.904;2023-01-30T12:10:18;28.75;;;18.20;;
62574;SDS011;53112;45.602;11.904;2023-01-30T12:12:52;26.77;;;16.77;;
62574;SDS011;53112;45.602;11.904;2023-01-30T12:15:28;25.35;;;16.15;;
62574;SDS011;53112;45.602;11.904;2023-01-30T12:18:15;28.20;;;17.23;;
62574;SDS011;53112;45.602;11.904;2023-01-30T12:31:15;24.58;;;16.38;;
62574;SDS011;53112;45.602;11.904;2023-01-30T12:34:02;23.38;;;15.25;;
62574;SDS011;53112;45.602;11.904;2023-01-30T12:36:41;25.30;;;16.35;;
62574;SDS011;53112;45.602;11.904;2023-01-30T12:50:58;26.23;;;16.35;;
62574;SDS011;53112;45.602;11.904;2023-01-30T12:56:26;28.73;;;17.30;;
62574;SDS011;53112;45.602;11.904;2023-01-30T13:13:33;26.25;;;16.67;;
62574;SDS011;53112;45.602;11.904;2023-01-30T13:19:05;26.77;;;17.67;;
62574;SDS011;53112;45.602;11.904;2023-01-30T13:26:46;27.73;;;16.95;;
62574;SDS011;53112;45.602;11.904;2023-01-30T13:29:25;27.63;;;17.55;;
62574;SDS011;53112;45.602;11.904;2023-01-30T13:32:00;25.95;;;17.00;;
62574;SDS011;53112;45.602;11.904;2023-01-30T13:37:01;24.45;;;16.23;;
62574;SDS011;53112;45.602;11.904;2023-01-30T13:39:38;26.73;;;17.80;;
62574;SDS011;53112;45.602;11.904;2023-01-30T13:42:06;26.23;;;17.55;;
62574;SDS011;53112;45.602;11.904;2023-01-30T13:44:59;26.65;;;16.42;;
62574;SDS011;53112;45.602;11.904;2023-01-30T13:52:55;25.65;;;15.88;;
62574;SDS011;53112;45.602;11.904;2023-01-30T13:55:33;23.90;;;15.23;;
62574;SDS011;53112;45.602;11.904;2023-01-30T14:00:50;25.48;;;16.70;;
62574;SDS011;53112;45.602;11.904;2023-01-30T14:03:27;25.88;;;15.65;;
62574;SDS011;53112;45.602;11.904;2023-01-30T14:08:37;25.50;;;15.75;;
62574;SDS011;53112;45.602;11.904;2023-01-30T14:11:26;21.95;;;13.75;;
62574;SDS011;53112;45.602;11.904;2023-01-30T14:14:03;23.50;;;15.15;;
62574;SDS011;53112;45.602;11.904;2023-01-30T14:16:45;25.00;;;15.77;;
62574;SDS011;53112;45.602;11.904;2023-01-30T14:22:14;24.75;;;15.90;;
62574;SDS011;53112;45.602;11.904;2023-01-30T14:35:47;22.05;;;14.65;;
62574;SDS011;53112;45.602;11.904;2023-01-30T14:38:37;22.25;;;14.65;;
62574;SDS011;53112;45.602;11.904;2023-01-30T14:46:01;24.33;;;15.75;;
62574;SDS011;53112;45.602;11.904;2023-01-30T14:48:51;22.85;;;15.65;;
62574;SDS011;53112;45.602;11.904;2023-01-30T14:51:27;24.05;;;15.93;;
62574;SDS011;53112;45.602;11.904;2023-01-30T15:04:39;22.20;;;14.75;;
62574;SDS011;53112;45.602;11.904;2023-01-30T15:07:24;21.08;;;14.65;;
62574;SDS011;53112;45.602;11.904;2023-01-30T15:09:59;23.50;;;15.00;;
62574;SDS011;53112;45.602;11.904;2023-01-30T15:12:48;22.85;;;15.65;;
62574;SDS011;53112;45.602;11.904;2023-01-30T15:32:23;23.60;;;14.65;;
62574;SDS011;53112;45.602;11.904;2023-01-30T15:34:52;23.80;;;15.18;;
62574;SDS011;53112;45.602;11.904;2023-01-30T15:37:35;25.67;;;15.60;;
62574;SDS011;53112;45.602;11.904;2023-01-30T15:42:47;24.33;;;15.65;;
62574;SDS011;53112;45.602;11.904;2023-01-30T15:51:10;23.50;;;14.68;;
62574;SDS011;53112;45.602;11.904;2023-01-30T15:53:41;23.52;;;15.07;;
62574;SDS011;53112;45.602;11.904;2023-01-30T15:56:09;22.20;;;14.60;;
62574;SDS011;53112;45.602;11.904;2023-01-30T15:58:42;22.73;;;13.75;;
62574;SDS011;53112;45.602;11.904;2023-01-30T16:01:09;22.40;;;14.18;;
62574;SDS011;53112;45.602;11.904;2023-01-30T16:06:18;24.63;;;14.43;;
62574;SDS011;53112;45.602;11.904;2023-01-30T16:08:55;24.08;;;14.35;;
62574;SDS011;53112;45.602;11.904;2023-01-30T16:11:34;25.23;;;15.57;;
62574;SDS011;53112;45.602;11.904;2023-01-30T16:14:01;26.48;;;16.40;;
62574;SDS011;53112;45.602;11.904;2023-01-30T16:16:27;30.85;;;17.42;;
62574;SDS011;53112;45.602;11.904;2023-01-30T16:18:54;31.65;;;17.30;;
62574;SDS011;53112;45.602;11.904;2023-01-30T16:21:25;34.05;;;18.23;;
62574;SDS011;53112;45.602;11.904;2023-01-30T16:24:03;28.70;;;16.13;;
62574;SDS011;53112;45.602;11.904;2023-01-30T16:26:30;28.38;;;15.68;;
62574;SDS011;53112;45.602;11.904;2023-01-30T16:29:02;29.75;;;16.65;;
62574;SDS011;53112;45.602;11.904;2023-01-30T16:31:38;30.83;;;15.95;;
62574;SDS011;53112;45.602;11.904;2023-01-30T16:34:05;26.10;;;15.95;;
62574;SDS011;53112;45.602;11.904;2023-01-30T16:36:41;27.10;;;16.17;;
62574;SDS011;53112;45.602;11.904;2023-01-30T16:39:25;29.48;;;17.15;;
62574;SDS011;53112;45.602;11.904;2023-01-30T16:41:54;32.80;;;17.33;;
62574;SDS011;53112;45.602;11.904;2023-01-30T16:44:22;34.03;;;17.98;;
62574;SDS011;53112;45.602;11.904;2023-01-30T16:52:04;31.42;;;16.55;;
62574;SDS011;53112;45.602;11.904;2023-01-30T16:54:51;33.13;;;17.00;;
62574;SDS011;53112;45.602;11.904;2023-01-30T16:57:24;28.50;;;16.42;;
62574;SDS011;53112;45.602;11.904;2023-01-30T16:59:59;43.85;;;18.10;;
62574;SDS011;53112;45.602;11.904;2023-01-30T17:02:29;36.83;;;19.50;;
62574;SDS011;53112;45.602;11.904;2023-01-30T17:05:09;31.60;;;17.67;;
62574;SDS011;53112;45.602;11.904;2023-01-30T17:07:39;34.20;;;18.42;;
62574;SDS011;53112;45.602;11.904;2023-01-30T17:10:12;41.17;;;17.42;;
62574;SDS011;53112;45.602;11.904;2023-01-30T17:13:03;51.00;;;21.35;;
62574;SDS011;53112;45.602;11.904;2023-01-30T17:15:49;49.10;;;20.15;;
62574;SDS011;53112;45.602;11.904;2023-01-30T17:18:15;86.30;;;22.17;;
62574;SDS011;53112;45.602;11.904;2023-01-30T17:20:41;43.08;;;20.58;;
62574;SDS011;53112;45.602;11.904;2023-01-30T17:23:16;48.85;;;21.00;;
62574;SDS011;53112;45.602;11.904;2023-01-30T17:25:46;41.15;;;19.63;;
62574;SDS011;53112;45.602;11.904;2023-01-30T17:28:16;41.03;;;19.50;;
62574;SDS011;53112;45.602;11.904;2023-01-30T17:30:45;42.25;;;20.92;;
62574;SDS011;53112;45.602;11.904;2023-01-30T17:33:12;48.55;;;21.98;;
62574;SDS011;53112;45.602;11.904;2023-01-30T17:35:38;41.72;;;21.63;;
62574;SDS011;53112;45.602;11.904;2023-01-30T17:38:04;39.92;;;19.80;;
62574;SDS011;53112;45.602;11.904;2023-01-30T17:40:31;36.85;;;18.10;;
62574;SDS011;53112;45.602;11.904;2023-01-30T17:43:00;39.33;;;20.35;;
62574;SDS011;53112;45.602;11.904;2023-01-30T17:45:26;36.65;;;20.40;;
62574;SDS011;53112;45.602;11.904;2023-01-30T17:47:52;44.80;;;22.83;;
62574;SDS011;53112;45.602;11.904;2023-01-30T17:50:18;48.55;;;23.23;;